sensor_id;sensor_type;location;lat;lon;timestamp;pressure;altitude;pressure_sealevel;temperature;humidity
8703;BME280;9002;42.708;23.186;2024-03-22T00:02:13;95050.09;;;11.46;33.19
8703;BME280;9002;42.708;23.186;2024-03-22T00:04:40;95037.72;;;11.53;31.64
8703;BME280;9002;42.708;23.186;2024-03-22T00:07:06;95039.97;;;11.45;33.49
8703;BME280;9002;42.708;23.186;2024-03-22T00:09:33;95043.03;;;11.20;32.45
8703;BME280;9002;42.708;23.186;2024-03-22T00:11:59;95046.56;;;10.75;33.38
8703;BME280;9002;42.708;23.186;2024-03-22T00:14:27;95034.88;;;10.22;35.39
8703;BME280;9002;42.708;23.186;2024-03-22T00:16:53;95038.84;;;10.13;35.21
8703;BME280;9002;42.708;23.186;2024-03-22T00:19:20;95041.63;;;10.40;33.72
8703;BME280;9002;42.708;23.186;2024-03-22T00:21:46;95041.63;;;10.40;34.17
8703;BME280;9002;42.708;23.186;2024-03-22T00:24:13;95032.75;;;10.19;34.57
8703;BME280;9002;42.708;23.186;2024-03-22T00:26:39;95040.56;;;10.52;33.58
8703;BME280;9002;42.708;23.186;2024-03-22T00:29:06;95043.94;;;10.70;34.42
8703;BME280;9002;42.708;23.186;2024-03-22T00:31:34;95041.88;;;10.72;34.48
8703;BME280;9002;42.708;23.186;2024-03-22T00:34:01;95039.47;;;10.87;32.87
8703;BME280;9002;42.708;23.186;2024-03-22T00:36:27;95036.97;;;10.92;32.42
8703;BME280;9002;42.708;23.186;2024-03-22T00:38:54;95040.03;;;10.89;32.81
8703;BME280;9002;42.708;23.186;2024-03-22T00:41:19;95044.75;;;10.92;33.76
8703;BME280;9002;42.708;23.186;2024-03-22T00:43:46;95052.03;;;10.95;33.46
8703;BME280;9002;42.708;23.186;2024-03-22T00:46:12;95047.22;;;10.65;35.35
8703;BME280;9002;42.708;23.186;2024-03-22T00:48:41;95043.22;;;10.58;35.83
8703;BME280;9002;42.708;23.186;2024-03-22T00:51:06;95041.50;;;10.63;35.72
8703;BME280;9002;42.708;23.186;2024-03-22T00:53:33;95036.22;;;10.41;34.93
8703;BME280;9002;42.708;23.186;2024-03-22T00:55:59;95043.53;;;10.44;36.19
8703;BME280;9002;42.708;23.186;2024-03-22T00:58:27;95035.44;;;9.95;36.74
8703;BME280;9002;42.708;23.186;2024-03-22T01:00:53;95045.97;;;10.06;37.16
8703;BME280;9002;42.708;23.186;2024-03-22T01:03:20;95041.97;;;9.98;37.18
8703;BME280;9002;42.708;23.186;2024-03-22T01:05:47;95034.75;;;10.00;37.38
8703;BME280;9002;42.708;23.186;2024-03-22T01:08:14;95038.13;;;10.01;36.06
8703;BME280;9002;42.708;23.186;2024-03-22T01:10:40;95039.84;;;9.95;36.19
8703;BME280;9002;42.708;23.186;2024-03-22T01:13:07;95023.19;;;9.46;37.35
8703;BME280;9002;42.708;23.186;2024-03-22T01:15:33;95043.50;;;9.54;38.54
8703;BME280;9002;42.708;23.186;2024-03-22T01:18:01;95043.53;;;9.42;37.49
8703;BME280;9002;42.708;23.186;2024-03-22T01:20:27;95050.50;;;9.42;37.55
8703;BME280;9002;42.708;23.186;2024-03-22T01:22:55;95043.41;;;9.49;37.03
8703;BME280;9002;42.708;23.186;2024-03-22T01:25:21;95045.47;;;9.23;37.63
8703;BME280;9002;42.708;23.186;2024-03-22T01:27:48;95046.66;;;8.80;39.41
8703;BME280;9002;42.708;23.186;2024-03-22T01:30:14;95046.56;;;8.99;38.69
8703;BME280;9002;42.708;23.186;2024-03-22T01:32:41;95045.19;;;9.08;38.42
8703;BME280;9002;42.708;23.186;2024-03-22T01:35:08;95040.31;;;9.23;37.52
8703;BME280;9002;42.708;23.186;2024-03-22T01:37:35;95044.81;;;9.16;37.70
8703;BME280;9002;42.708;23.186;2024-03-22T01:40:02;95036.50;;;9.14;37.79
8703;BME280;9002;42.708;23.186;2024-03-22T01:42:30;95048.94;;;9.41;38.62
8703;BME280;9002;42.708;23.186;2024-03-22T01:44:56;95014.78;;;9.38;37.49
8703;BME280;9002;42.708;23.186;2024-03-22T01:47:23;95024.63;;;9.53;37.36
8703;BME280;9002;42.708;23.186;2024-03-22T01:52:21;95031.81;;;9.51;37.49
8703;BME280;9002;42.708;23.186;2024-03-22T01:54:49;95020.53;;;9.29;37.76
8703;BME280;9002;42.708;23.186;2024-03-22T01:57:16;95028.31;;;9.57;37.40
8703;BME280;9002;42.708;23.186;2024-03-22T01:59:43;95033.84;;;9.78;37.79
8703;BME280;9002;42.708;23.186;2024-03-22T02:02:12;95019.06;;;9.61;38.29
8703;BME280;9002;42.708;23.186;2024-03-22T02:04:39;95031.22;;;9.61;36.82
8703;BME280;9002;42.708;23.186;2024-03-22T02:07:05;95019.25;;;9.43;38.03
8703;BME280;9002;42.708;23.186;2024-03-22T02:09:32;95027.41;;;9.52;37.50
8703;BME280;9002;42.708;23.186;2024-03-22T02:11:58;95026.78;;;9.45;38.02
8703;BME280;9002;42.708;23.186;2024-03-22T02:14:26;95021.19;;;9.36;37.25
8703;BME280;9002;42.708;23.186;2024-03-22T02:16:53;95013.84;;;9.73;38.07
8703;BME280;9002;42.708;23.186;2024-03-22T02:19:19;95025.66;;;9.69;38.53
8703;BME280;9002;42.708;23.186;2024-03-22T02:21:46;95017.91;;;9.69;37.63
8703;BME280;9002;42.708;23.186;2024-03-22T02:24:17;95028.53;;;9.84;37.32
8703;BME280;9002;42.708;23.186;2024-03-22T02:26:44;95026.81;;;9.61;37.83
8703;BME280;9002;42.708;23.186;2024-03-22T02:29:10;95038.38;;;9.30;37.98
8703;BME280;9002;42.708;23.186;2024-03-22T02:31:37;95028.19;;;9.24;38.68
8703;BME280;9002;42.708;23.186;2024-03-22T02:34:03;95033.88;;;9.37;38.65
8703;BME280;9002;42.708;23.186;2024-03-22T02:36:30;95051.38;;;9.47;38.68
8703;BME280;9002;42.708;23.186;2024-03-22T02:38:55;95058.25;;;9.53;38.84
8703;BME280;9002;42.708;23.186;2024-03-22T02:41:24;95058.25;;;9.53;39.42
8703;BME280;9002;42.708;23.186;2024-03-22T02:43:50;95029.69;;;9.48;38.87
8703;BME280;9002;42.708;23.186;2024-03-22T02:46:17;95059.19;;;9.35;40.07
8703;BME280;9002;42.708;23.186;2024-03-22T02:48:43;95052.28;;;9.41;40.12
8703;BME280;9002;42.708;23.186;2024-03-22T02:51:10;95046.22;;;9.47;39.05
8703;BME280;9002;42.708;23.186;2024-03-22T02:53:36;95061.00;;;9.23;40.40
8703;BME280;9002;42.708;23.186;2024-03-22T03:30:42;95093.69;;;7.57;43.51
8703;BME280;9002;42.708;23.186;2024-03-22T03:33:09;95098.66;;;7.71;43.18
8703;BME280;9002;42.708;23.186;2024-03-22T03:35:35;95099.53;;;7.28;43.93
8703;BME280;9002;42.708;23.186;2024-03-22T03:38:02;95084.31;;;7.45;43.58
8703;BME280;9002;42.708;23.186;2024-03-22T03:40:28;95094.22;;;7.78;43.29
8703;BME280;9002;42.708;23.186;2024-03-22T03:42:55;95080.06;;;7.68;42.92
8703;BME280;9002;42.708;23.186;2024-03-22T03:45:21;95110.84;;;7.82;42.49
8703;BME280;9002;42.708;23.186;2024-03-22T03:47:50;95110.88;;;7.93;42.42
8703;BME280;9002;42.708;23.186;2024-03-22T03:50:16;95112.72;;;8.05;41.85
8703;BME280;9002;42.708;23.186;2024-03-22T03:52:43;95116.50;;;7.72;41.86
8703;BME280;9002;42.708;23.186;2024-03-22T03:55:08;95101.50;;;7.81;41.85
8703;BME280;9002;42.708;23.186;2024-03-22T03:57:35;95101.66;;;7.86;41.32
8703;BME280;9002;42.708;23.186;2024-03-22T04:00:01;95112.69;;;7.93;41.37
8703;BME280;9002;42.708;23.186;2024-03-22T04:02:29;95115.31;;;8.05;41.14
8703;BME280;9002;42.708;23.186;2024-03-22T04:04:56;95116.09;;;8.05;40.74
8703;BME280;9002;42.708;23.186;2024-03-22T04:07:24;95120.84;;;8.20;40.67
8703;BME280;9002;42.708;23.186;2024-03-22T04:09:51;95121.25;;;8.05;40.86
8703;BME280;9002;42.708;23.186;2024-03-22T04:12:18;95123.31;;;8.26;40.64
8703;BME280;9002;42.708;23.186;2024-03-22T04:14:44;95124.63;;;8.17;40.89
8703;BME280;9002;42.708;23.186;2024-03-22T04:17:11;95120.88;;;8.32;40.51
8703;BME280;9002;42.708;23.186;2024-03-22T04:19:36;95122.69;;;8.01;41.18
8703;BME280;9002;42.708;23.186;2024-03-22T04:22:05;95126.22;;;7.88;41.26
8703;BME280;9002;42.708;23.186;2024-03-22T04:24:31;95130.88;;;7.06;43.53
8703;BME280;9002;42.708;23.186;2024-03-22T04:26:58;95132.34;;;7.39;43.22
8703;BME280;9002;42.708;23.186;2024-03-22T04:29:24;95132.34;;;7.39;42.73
8703;BME280;9002;42.708;23.186;2024-03-22T04:31:50;95136.28;;;7.60;42.37
8703;BME280;9002;42.708;23.186;2024-03-22T04:34:16;95144.44;;;7.75;42.12
8703;BME280;9002;42.708;23.186;2024-03-22T04:36:43;95128.59;;;7.72;42.61
8703;BME280;9002;42.708;23.186;2024-03-22T04:39:11;95127.91;;;7.83;42.00
8703;BME280;9002;42.708;23.186;2024-03-22T04:41:39;95142.31;;;8.02;41.33
8703;BME280;9002;42.708;23.186;2024-03-22T04:44:06;95151.63;;;8.03;41.58
8703;BME280;9002;42.708;23.186;2024-03-22T04:46:33;95139.88;;;8.07;41.32
8703;BME280;9002;42.708;23.186;2024-03-22T04:48:59;95150.72;;;8.28;40.94
8703;BME280;9002;42.708;23.186;2024-03-22T04:51:26;95147.69;;;8.31;40.80
8703;BME280;9002;42.708;23.186;2024-03-22T04:53:52;95142.09;;;8.34;40.93
8703;BME280;9002;42.708;23.186;2024-03-22T04:56:20;95148.44;;;8.19;40.56
8703;BME280;9002;42.708;23.186;2024-03-22T04:58:46;95133.94;;;8.37;40.94
8703;BME280;9002;42.708;23.186;2024-03-22T05:01:13;95146.19;;;8.53;40.00
8703;BME280;9002;42.708;23.186;2024-03-22T05:03:40;95154.66;;;8.60;39.77
8703;BME280;9002;42.708;23.186;2024-03-22T05:06:07;95149.13;;;8.26;40.32
8703;BME280;9002;42.708;23.186;2024-03-22T05:08:33;95150.81;;;8.51;39.94
8703;BME280;9002;42.708;23.186;2024-03-22T05:11:00;95162.69;;;8.40;40.16
8703;BME280;9002;42.708;23.186;2024-03-22T05:13:27;95158.47;;;8.58;39.66
8703;BME280;9002;42.708;23.186;2024-03-22T05:15:54;95163.66;;;8.69;38.90
8703;BME280;9002;42.708;23.186;2024-03-22T05:18:20;95160.63;;;8.72;39.38
8703;BME280;9002;42.708;23.186;2024-03-22T05:20:47;95167.16;;;8.87;39.62
8703;BME280;9002;42.708;23.186;2024-03-22T05:23:13;95169.28;;;8.78;39.69
8703;BME280;9002;42.708;23.186;2024-03-22T05:25:41;95173.34;;;8.86;40.04
8703;BME280;9002;42.708;23.186;2024-03-22T05:28:07;95172.41;;;8.68;40.39
8703;BME280;9002;42.708;23.186;2024-03-22T05:30:35;95177.38;;;8.81;39.95
8703;BME280;9002;42.708;23.186;2024-03-22T05:33:01;95179.84;;;8.76;41.00
8703;BME280;9002;42.708;23.186;2024-03-22T05:35:28;95178.50;;;8.86;40.41
8703;BME280;9002;42.708;23.186;2024-03-22T05:37:54;95177.63;;;8.92;41.08
8703;BME280;9002;42.708;23.186;2024-03-22T05:40:21;95180.75;;;8.94;40.08
8703;BME280;9002;42.708;23.186;2024-03-22T05:42:47;95182.09;;;8.73;41.18
8703;BME280;9002;42.708;23.186;2024-03-22T05:45:14;95183.53;;;8.80;40.68
8703;BME280;9002;42.708;23.186;2024-03-22T05:47:42;95191.66;;;8.96;41.03
8703;BME280;9002;42.708;23.186;2024-03-22T05:50:09;95178.97;;;8.82;40.49
8703;BME280;9002;42.708;23.186;2024-03-22T05:52:35;95181.31;;;8.84;40.85
8703;BME280;9002;42.708;23.186;2024-03-22T05:55:02;95197.50;;;8.91;40.54
8703;BME280;9002;42.708;23.186;2024-03-22T05:57:28;95200.31;;;8.90;40.57
8703;BME280;9002;42.708;23.186;2024-03-22T05:59:55;95193.53;;;8.89;40.93
8703;BME280;9002;42.708;23.186;2024-03-22T06:02:21;95197.84;;;8.95;40.64
8703;BME280;9002;42.708;23.186;2024-03-22T06:04:50;95201.56;;;8.99;40.34
8703;BME280;9002;42.708;23.186;2024-03-22T06:07:16;95196.81;;;9.07;40.53
8703;BME280;9002;42.708;23.186;2024-03-22T06:09:43;95198.97;;;9.22;40.07
8703;BME280;9002;42.708;23.186;2024-03-22T09:25:16;95182.41;;;12.07;33.49
8703;BME280;9002;42.708;23.186;2024-03-22T09:27:44;95182.56;;;12.00;33.25
8703;BME280;9002;42.708;23.186;2024-03-22T09:30:10;95184.44;;;12.27;33.07
8703;BME280;9002;42.708;23.186;2024-03-22T09:32:38;95189.97;;;12.35;33.02
8703;BME280;9002;42.708;23.186;2024-03-22T09:35:11;95179.31;;;12.59;32.20
8703;BME280;9002;42.708;23.186;2024-03-22T09:37:40;95171.34;;;12.70;31.89
8703;BME280;9002;42.708;23.186;2024-03-22T09:40:07;95175.59;;;12.82;32.00
8703;BME280;9002;42.708;23.186;2024-03-22T09:42:37;95187.75;;;13.03;31.46
8703;BME280;9002;42.708;23.186;2024-03-22T09:45:08;95187.50;;;13.04;31.14
8703;BME280;9002;42.708;23.186;2024-03-22T09:47:36;95170.56;;;13.02;30.93
8703;BME280;9002;42.708;23.186;2024-03-22T09:50:03;95162.31;;;12.78;31.85
8703;BME280;9002;42.708;23.186;2024-03-22T09:52:33;95189.34;;;13.09;31.60
8703;BME280;9002;42.708;23.186;2024-03-22T09:54:59;95191.88;;;13.31;30.94
8703;BME280;9002;42.708;23.186;2024-03-22T09:57:29;95183.22;;;12.93;30.87
8703;BME280;9002;42.708;23.186;2024-03-22T09:59:57;95164.63;;;13.06;30.78
8703;BME280;9002;42.708;23.186;2024-03-22T10:02:25;95170.16;;;13.15;31.56
8703;BME280;9002;42.708;23.186;2024-03-22T10:04:52;95178.09;;;13.35;31.13
8703;BME280;9002;42.708;23.186;2024-03-22T10:07:18;95174.63;;;13.62;31.61
8703;BME280;9002;42.708;23.186;2024-03-22T10:09:45;95168.47;;;13.78;31.62
8703;BME280;9002;42.708;23.186;2024-03-22T10:12:12;95145.25;;;13.67;30.05
8703;BME280;9002;42.708;23.186;2024-03-22T10:14:38;95161.03;;;14.02;30.26
8703;BME280;9002;42.708;23.186;2024-03-22T10:17:09;95159.72;;;14.10;30.00
8703;BME280;9002;42.708;23.186;2024-03-22T10:19:35;95174.06;;;14.17;30.33
8703;BME280;9002;42.708;23.186;2024-03-22T10:22:03;95172.03;;;14.25;29.66
8703;BME280;9002;42.708;23.186;2024-03-22T10:24:30;95156.69;;;14.38;29.19
8703;BME280;9002;42.708;23.186;2024-03-22T10:26:57;95171.00;;;14.31;29.60
8703;BME280;9002;42.708;23.186;2024-03-22T10:29:23;95145.00;;;14.46;29.13
8703;BME280;9002;42.708;23.186;2024-03-22T10:31:51;95144.75;;;14.73;28.79
8703;BME280;9002;42.708;23.186;2024-03-22T10:34:22;95145.81;;;14.87;27.88
8703;BME280;9002;42.708;23.186;2024-03-22T10:36:50;95148.94;;;14.89;28.48
8703;BME280;9002;42.708;23.186;2024-03-22T10:39:17;95140.09;;;15.11;28.13
8703;BME280;9002;42.708;23.186;2024-03-22T10:41:45;95141.13;;;15.04;27.34
8703;BME280;9002;42.708;23.186;2024-03-22T10:44:12;95144.25;;;14.91;28.17
8703;BME280;9002;42.708;23.186;2024-03-22T10:46:43;95140.88;;;15.11;28.02
8703;BME280;9002;42.708;23.186;2024-03-22T10:49:11;95135.91;;;14.94;27.83
8703;BME280;9002;42.708;23.186;2024-03-22T10:51:44;95125.47;;;15.04;27.45
8703;BME280;9002;42.708;23.186;2024-03-22T10:54:13;95125.72;;;15.08;28.01
8703;BME280;9002;42.708;23.186;2024-03-22T10:56:44;95120.72;;;15.37;27.66
8703;BME280;9002;42.708;23.186;2024-03-22T11:49:04;95061.63;;;17.66;23.42
8703;BME280;9002;42.708;23.186;2024-03-22T11:51:31;95081.53;;;17.91;23.04
8703;BME280;9002;42.708;23.186;2024-03-22T11:53:57;95074.28;;;18.02;22.76
8703;BME280;9002;42.708;23.186;2024-03-22T11:56:25;95069.78;;;18.26;23.05
8703;BME280;9002;42.708;23.186;2024-03-22T11:58:57;95069.16;;;18.15;21.63
8703;BME280;9002;42.708;23.186;2024-03-22T12:01:25;95069.13;;;18.34;22.66
8703;BME280;9002;42.708;23.186;2024-03-22T12:03:51;95066.78;;;18.70;21.46
8703;BME280;9002;42.708;23.186;2024-03-22T12:06:20;95060.09;;;17.60;23.22
8703;BME280;9002;42.708;23.186;2024-03-22T12:08:47;95063.88;;;17.54;22.97
8703;BME280;9002;42.708;23.186;2024-03-22T12:11:14;95049.44;;;17.09;24.16
8703;BME280;9002;42.708;23.186;2024-03-22T12:13:40;95030.69;;;16.67;23.39
8703;BME280;9002;42.708;23.186;2024-03-22T12:16:07;95048.84;;;16.14;24.72
8703;BME280;9002;42.708;23.186;2024-03-22T12:18:33;95046.03;;;16.45;24.96
8703;BME280;9002;42.708;23.186;2024-03-22T12:21:00;95040.81;;;16.45;23.99
8703;BME280;9002;42.708;23.186;2024-03-22T12:23:27;95044.31;;;16.30;24.80
8703;BME280;9002;42.708;23.186;2024-03-22T12:25:54;95017.44;;;16.88;23.91
8703;BME280;9002;42.708;23.186;2024-03-22T12:28:21;95031.72;;;17.48;22.34
8703;BME280;9002;42.708;23.186;2024-03-22T12:30:49;95013.25;;;17.82;22.25
8703;BME280;9002;42.708;23.186;2024-03-22T12:33:15;95013.88;;;18.12;21.64
8703;BME280;9002;42.708;23.186;2024-03-22T12:35:42;95019.56;;;18.52;21.12
8703;BME280;9002;42.708;23.186;2024-03-22T12:38:10;95002.00;;;19.12;20.23
8703;BME280;9002;42.708;23.186;2024-03-22T12:40:39;95031.66;;;19.68;20.44
8703;BME280;9002;42.708;23.186;2024-03-22T12:43:09;95025.50;;;18.90;20.87
8703;BME280;9002;42.708;23.186;2024-03-22T12:45:35;95023.09;;;18.61;20.87
8703;BME280;9002;42.708;23.186;2024-03-22T12:48:03;95008.84;;;18.67;20.30
8703;BME280;9002;42.708;23.186;2024-03-22T12:50:29;95023.50;;;19.28;20.40
8703;BME280;9002;42.708;23.186;2024-03-22T12:52:56;95010.63;;;19.40;19.76
8703;BME280;9002;42.708;23.186;2024-03-22T12:55:22;95023.34;;;18.78;20.32
8703;BME280;9002;42.708;23.186;2024-03-22T12:57:52;95005.03;;;19.33;20.15
8703;BME280;9002;42.708;23.186;2024-03-22T13:00:19;95021.31;;;19.85;19.36
8703;BME280;9002;42.708;23.186;2024-03-22T13:02:46;94943.28;;;19.72;19.57
8703;BME280;9002;42.708;23.186;2024-03-22T13:05:12;94979.25;;;19.35;19.91
8703;BME280;9002;42.708;23.186;2024-03-22T13:07:40;95014.19;;;19.99;19.65
8703;BME280;9002;42.708;23.186;2024-03-22T13:10:08;95005.31;;;20.31;19.45
8703;BME280;9002;42.708;23.186;2024-03-22T13:12:36;95004.50;;;20.67;18.64
8703;BME280;9002;42.708;23.186;2024-03-22T13:15:03;94996.31;;;21.08;18.76
8703;BME280;9002;42.708;23.186;2024-03-22T13:17:31;94996.41;;;20.63;18.49
8703;BME280;9002;42.708;23.186;2024-03-22T13:19:57;94998.50;;;20.53;18.72
8703;BME280;9002;42.708;23.186;2024-03-22T13:22:25;95004.19;;;20.68;18.71
8703;BME280;9002;42.708;23.186;2024-03-22T13:24:51;95005.50;;;19.63;19.58
8703;BME280;9002;42.708;23.186;2024-03-22T13:27:18;95004.50;;;20.31;19.29
8703;BME280;9002;42.708;23.186;2024-03-22T13:29:48;94985.63;;;20.74;18.75
8703;BME280;9002;42.708;23.186;2024-03-22T13:32:16;94981.78;;;20.80;18.30
8703;BME280;9002;42.708;23.186;2024-03-22T13:34:42;94989.53;;;19.73;19.79
8703;BME280;9002;42.708;23.186;2024-03-22T13:37:09;94985.63;;;19.70;19.91
8703;BME280;9002;42.708;23.186;2024-03-22T13:39:35;94984.69;;;20.25;19.31
8703;BME280;9002;42.708;23.186;2024-03-22T13:42:02;94978.88;;;20.90;18.30
8703;BME280;9002;42.708;23.186;2024-03-22T13:44:28;94949.25;;;20.45;18.84
8703;BME280;9002;42.708;23.186;2024-03-22T13:46:58;94966.94;;;20.84;17.78
8703;BME280;9002;42.708;23.186;2024-03-22T13:49:26;94970.47;;;21.85;17.80
8703;BME280;9002;42.708;23.186;2024-03-22T13:51:53;94978.22;;;21.90;17.44
8703;BME280;9002;42.708;23.186;2024-03-22T13:54:19;94972.66;;;22.34;16.85
8703;BME280;9002;42.708;23.186;2024-03-22T13:56:46;94967.22;;;22.31;16.87
8703;BME280;9002;42.708;23.186;2024-03-22T13:59:13;94970.16;;;21.20;16.95
8703;BME280;9002;42.708;23.186;2024-03-22T14:01:42;94970.75;;;21.57;17.00
8703;BME280;9002;42.708;23.186;2024-03-22T14:04:10;94965.34;;;21.97;16.93
8703;BME280;9002;42.708;23.186;2024-03-22T14:06:39;94937.28;;;22.09;16.28
8703;BME280;9002;42.708;23.186;2024-03-22T14:09:05;94948.22;;;22.55;15.26
8703;BME280;9002;42.708;23.186;2024-03-22T14:11:35;94952.47;;;23.03;15.54
8703;BME280;9002;42.708;23.186;2024-03-22T14:14:05;94952.19;;;22.96;15.22
8703;BME280;9002;42.708;23.186;2024-03-22T14:16:44;94948.56;;;21.41;17.21
8703;BME280;9002;42.708;23.186;2024-03-22T14:19:10;94954.00;;;20.96;17.85
8703;BME280;9002;42.708;23.186;2024-03-22T14:21:38;94951.41;;;21.13;17.87
8703;BME280;9002;42.708;23.186;2024-03-22T14:24:04;94944.88;;;21.76;17.01
8703;BME280;9002;42.708;23.186;2024-03-22T14:26:33;94943.50;;;22.22;17.49
8703;BME280;9002;42.708;23.186;2024-03-22T14:28:59;94938.81;;;22.36;17.16
8703;BME280;9002;42.708;23.186;2024-03-22T14:31:26;94934.63;;;21.83;17.69
8703;BME280;9002;42.708;23.186;2024-03-22T14:33:51;94945.75;;;21.46;18.28
8703;BME280;9002;42.708;23.186;2024-03-22T14:36:19;94931.78;;;20.49;18.59
8703;BME280;9002;42.708;23.186;2024-03-22T14:38:46;94933.44;;;20.76;18.67
8703;BME280;9002;42.708;23.186;2024-03-22T14:41:13;94929.44;;;20.25;18.98
8703;BME280;9002;42.708;23.186;2024-03-22T14:43:39;94929.81;;;20.09;18.97
8703;BME280;9002;42.708;23.186;2024-03-22T14:46:05;94926.16;;;19.74;19.79
8703;BME280;9002;42.708;23.186;2024-03-22T14:48:32;94930.44;;;19.07;20.24
8703;BME280;9002;42.708;23.186;2024-03-22T14:50:59;94921.03;;;19.55;19.69
8703;BME280;9002;42.708;23.186;2024-03-22T14:53:26;94929.44;;;20.02;19.41
8703;BME280;9002;42.708;23.186;2024-03-22T14:55:56;94914.41;;;20.17;19.14
8703;BME280;9002;42.708;23.186;2024-03-22T14:58:24;94919.69;;;20.48;18.74
8703;BME280;9002;42.708;23.186;2024-03-22T15:00:55;94922.06;;;20.04;19.00
8703;BME280;9002;42.708;23.186;2024-03-22T15:03:21;94927.31;;;18.91;19.99
8703;BME280;9002;42.708;23.186;2024-03-22T15:05:50;94938.38;;;19.56;18.87
8703;BME280;9002;42.708;23.186;2024-03-22T15:08:16;94924.50;;;20.23;18.96
8703;BME280;9002;42.708;23.186;2024-03-22T15:10:43;94927.19;;;20.63;18.41
8703;BME280;9002;42.708;23.186;2024-03-22T15:13:11;94931.53;;;20.59;18.06
8703;BME280;9002;42.708;23.186;2024-03-22T15:15:38;94931.72;;;20.40;18.51
8703;BME280;9002;42.708;23.186;2024-03-22T15:18:05;94926.94;;;20.20;18.31
8703;BME280;9002;42.708;23.186;2024-03-22T15:20:32;94926.81;;;20.25;18.56
8703;BME280;9002;42.708;23.186;2024-03-22T15:22:58;94922.72;;;19.88;19.13
8703;BME280;9002;42.708;23.186;2024-03-22T15:25:25;94929.66;;;19.20;19.44
8703;BME280;9002;42.708;23.186;2024-03-22T15:27:51;94921.78;;;19.70;19.51
8703;BME280;9002;42.708;23.186;2024-03-22T15:30:19;94910.72;;;19.95;18.87
8703;BME280;9002;42.708;23.186;2024-03-22T15:32:45;94923.59;;;20.28;18.98
8703;BME280;9002;42.708;23.186;2024-03-22T15:35:12;94920.25;;;19.69;18.81
8703;BME280;9002;42.708;23.186;2024-03-22T15:37:39;94922.09;;;19.54;20.08
8703;BME280;9002;42.708;23.186;2024-03-22T15:40:07;94926.38;;;19.14;20.92
8703;BME280;9002;42.708;23.186;2024-03-22T15:42:34;94921.97;;;19.10;20.97
8703;BME280;9002;42.708;23.186;2024-03-22T15:45:02;94926.63;;;18.85;21.33
8703;BME280;9002;42.708;23.186;2024-03-22T15:47:33;94933.94;;;19.16;20.45
8703;BME280;9002;42.708;23.186;2024-03-22T15:50:03;94908.69;;;19.56;20.20
8703;BME280;9002;42.708;23.186;2024-03-22T15:52:31;94927.69;;;19.12;20.85
8703;BME280;9002;42.708;23.186;2024-03-22T15:54:58;94931.47;;;18.64;20.77
8703;BME280;9002;42.708;23.186;2024-03-22T15:57:25;94934.47;;;18.58;22.07
8703;BME280;9002;42.708;23.186;2024-03-22T15:59:52;94931.31;;;18.42;22.33
8703;BME280;9002;42.708;23.186;2024-03-22T16:02:18;94927.84;;;18.14;22.24
8703;BME280;9002;42.708;23.186;2024-03-22T16:04:48;94934.34;;;18.35;22.16
8703;BME280;9002;42.708;23.186;2024-03-22T16:07:14;94937.16;;;17.50;22.37
8703;BME280;9002;42.708;23.186;2024-03-22T16:09:41;94926.56;;;17.79;23.00
8703;BME280;9002;42.708;23.186;2024-03-22T16:12:07;94919.75;;;17.59;23.12
8703;BME280;9002;42.708;23.186;2024-03-22T16:14:34;94917.75;;;18.07;22.70
8703;BME280;9002;42.708;23.186;2024-03-22T16:17:00;94939.78;;;17.50;22.40
8703;BME280;9002;42.708;23.186;2024-03-22T16:19:27;94927.25;;;17.28;23.03
8703;BME280;9002;42.708;23.186;2024-03-22T16:21:55;94926.63;;;17.36;23.60
8703;BME280;9002;42.708;23.186;2024-03-22T16:24:22;94943.09;;;16.94;24.59
8703;BME280;9002;42.708;23.186;2024-03-22T16:26:48;94939.47;;;16.32;24.59
8703;BME280;9002;42.708;23.186;2024-03-22T16:29:16;94944.13;;;16.40;26.03
8703;BME280;9002;42.708;23.186;2024-03-22T16:31:42;94958.53;;;16.03;26.32
8703;BME280;9002;42.708;23.186;2024-03-22T16:34:09;94953.78;;;15.71;26.98
8703;BME280;9002;42.708;23.186;2024-03-22T16:36:35;94950.38;;;15.71;26.52
8703;BME280;9002;42.708;23.186;2024-03-22T16:39:03;94961.53;;;15.37;27.56
8703;BME280;9002;42.708;23.186;2024-03-22T16:41:29;94960.38;;;15.53;27.10
8703;BME280;9002;42.708;23.186;2024-03-22T16:43:56;94956.25;;;15.47;27.05
8703;BME280;9002;42.708;23.186;2024-03-22T16:46:22;94960.53;;;15.23;27.34
8703;BME280;9002;42.708;23.186;2024-03-22T16:48:50;94955.31;;;15.23;27.88
8703;BME280;9002;42.708;23.186;2024-03-22T16:51:16;94969.19;;;15.73;26.51
8703;BME280;9002;42.708;23.186;2024-03-22T16:53:43;94972.84;;;15.72;26.48
8703;BME280;9002;42.708;23.186;2024-03-22T16:56:11;94967.03;;;15.85;26.87
8703;BME280;9002;42.708;23.186;2024-03-22T16:58:38;94948.34;;;15.63;26.36
8703;BME280;9002;42.708;23.186;2024-03-22T17:01:04;94974.72;;;15.61;26.80
8703;BME280;9002;42.708;23.186;2024-03-22T17:03:31;94972.88;;;15.67;26.64
8703;BME280;9002;42.708;23.186;2024-03-22T17:05:57;94978.41;;;15.55;26.95
8703;BME280;9002;42.708;23.186;2024-03-22T17:08:24;94976.19;;;15.23;27.44
8703;BME280;9002;42.708;23.186;2024-03-22T17:10:50;94980.41;;;15.09;27.84
8703;BME280;9002;42.708;23.186;2024-03-22T17:13:22;94988.53;;;14.97;27.88
8703;BME280;9002;42.708;23.186;2024-03-22T17:15:50;94991.63;;;15.14;27.58
8703;BME280;9002;42.708;23.186;2024-03-22T17:18:19;94994.25;;;15.04;28.35
8703;BME280;9002;42.708;23.186;2024-03-22T17:20:45;95001.78;;;15.16;27.79
8703;BME280;9002;42.708;23.186;2024-03-22T17:23:12;95000.50;;;15.08;28.17
8703;BME280;9002;42.708;23.186;2024-03-22T17:25:38;95006.34;;;14.74;28.41
8703;BME280;9002;42.708;23.186;2024-03-22T17:28:05;95006.63;;;14.58;29.04
8703;BME280;9002;42.708;23.186;2024-03-22T17:30:34;94993.56;;;14.53;28.75
8703;BME280;9002;42.708;23.186;2024-03-22T17:33:01;95025.31;;;14.90;28.69
8703;BME280;9002;42.708;23.186;2024-03-22T17:35:28;95028.47;;;14.92;28.76
8703;BME280;9002;42.708;23.186;2024-03-22T17:37:55;95031.31;;;14.96;28.90
8703;BME280;9002;42.708;23.186;2024-03-22T17:40:21;95038.34;;;15.05;28.77
8703;BME280;9002;42.708;23.186;2024-03-22T17:42:48;95035.13;;;15.34;28.46
8703;BME280;9002;42.708;23.186;2024-03-22T17:45:14;95024.69;;;15.39;27.67
8703;BME280;9002;42.708;23.186;2024-03-22T17:47:42;95034.09;;;15.30;28.70
8703;BME280;9002;42.708;23.186;2024-03-22T17:50:09;95047.13;;;15.35;28.50
8703;BME280;9002;42.708;23.186;2024-03-22T17:52:36;95046.56;;;15.48;28.48
8703;BME280;9002;42.708;23.186;2024-03-22T17:55:02;95042.88;;;15.65;27.97